sensor_id;sensor_type;location;lat;lon;timestamp;temperature;humidity
68709;SHT30;55687;48.920;2.332;2023-03-01T00:01:31;5.48;44.39
68709;SHT30;55687;48.920;2.332;2023-03-01T00:03:57;5.46;44.39
68709;SHT30;55687;48.920;2.332;2023-03-01T00:06:23;5.46;44.38
68709;SHT30;55687;48.920;2.332;2023-03-01T00:08:49;5.43;44.33
68709;SHT30;55687;48.920;2.332;2023-03-01T00:11:17;5.44;44.30
68709;SHT30;55687;48.920;2.332;2023-03-01T00:13:44;5.40;44.31
68709;SHT30;55687;48.920;2.332;2023-03-01T00:16:14;5.36;44.31
68709;SHT30;55687;48.920;2.332;2023-03-01T00:18:40;5.36;44.30
68709;SHT30;55687;48.920;2.332;2023-03-01T00:21:06;5.35;44.46
68709;SHT30;55687;48.920;2.332;2023-03-01T00:23:34;5.32;44.40
68709;SHT30;55687;48.920;2.332;2023-03-01T00:25:59;5.29;44.55
68709;SHT30;55687;48.920;2.332;2023-03-01T00:28:25;5.25;44.59
68709;SHT30;55687;48.920;2.332;2023-03-01T00:30:50;5.23;44.64
68709;SHT30;55687;48.920;2.332;2023-03-01T00:33:15;5.20;44.71
68709;SHT30;55687;48.920;2.332;2023-03-01T00:35:41;5.19;44.82
68709;SHT30;55687;48.920;2.332;2023-03-01T00:38:06;5.15;45.20
68709;SHT30;55687;48.920;2.332;2023-03-01T00:40:34;5.12;45.17
68709;SHT30;55687;48.920;2.332;2023-03-01T00:43:00;5.12;45.53
68709;SHT30;55687;48.920;2.332;2023-03-01T00:45:26;5.07;45.35
68709;SHT30;55687;48.920;2.332;2023-03-01T00:47:52;5.07;45.34
68709;SHT30;55687;48.920;2.332;2023-03-01T00:50:18;5.05;45.32
68709;SHT30;55687;48.920;2.332;2023-03-01T00:52:44;5.02;45.30
68709;SHT30;55687;48.920;2.332;2023-03-01T00:55:10;4.98;45.52
68709;SHT30;55687;48.920;2.332;2023-03-01T00:57:35;4.99;45.50
68709;SHT30;55687;48.920;2.332;2023-03-01T01:00:01;4.94;45.54
68709;SHT30;55687;48.920;2.332;2023-03-01T01:02:29;4.94;45.52
68709;SHT30;55687;48.920;2.332;2023-03-01T01:04:54;4.91;45.57
68709;SHT30;55687;48.920;2.332;2023-03-01T01:07:19;4.88;45.73
68709;SHT30;55687;48.920;2.332;2023-03-01T01:09:46;4.85;45.77
68709;SHT30;55687;48.920;2.332;2023-03-01T01:12:11;4.83;45.82
68709;SHT30;55687;48.920;2.332;2023-03-01T01:14:37;4.81;45.78
68709;SHT30;55687;48.920;2.332;2023-03-01T01:17:02;4.77;45.89
68709;SHT30;55687;48.920;2.332;2023-03-01T01:19:27;4.77;45.94
68709;SHT30;55687;48.920;2.332;2023-03-01T01:21:53;4.76;45.96
68709;SHT30;55687;48.920;2.332;2023-03-01T01:24:19;4.74;45.96
68709;SHT30;55687;48.920;2.332;2023-03-01T01:26:45;4.76;45.95
68709;SHT30;55687;48.920;2.332;2023-03-01T01:29:11;4.71;45.96
68709;SHT30;55687;48.920;2.332;2023-03-01T01:31:38;4.68;46.06
68709;SHT30;55687;48.920;2.332;2023-03-01T01:34:05;4.70;46.05
68709;SHT30;55687;48.920;2.332;2023-03-01T01:36:31;4.66;46.22
68709;SHT30;55687;48.920;2.332;2023-03-01T01:38:57;4.66;46.18
68709;SHT30;55687;48.920;2.332;2023-03-01T01:41:25;4.64;46.26
68709;SHT30;55687;48.920;2.332;2023-03-01T01:44:11;4.61;46.28
68709;SHT30;55687;48.920;2.332;2023-03-01T01:46:39;4.63;46.26
68709;SHT30;55687;48.920;2.332;2023-03-01T01:52:24;4.56;46.37
68709;SHT30;55687;48.920;2.332;2023-03-01T01:55:02;4.54;46.38
68709;SHT30;55687;48.920;2.332;2023-03-01T01:57:37;4.52;46.39
68709;SHT30;55687;48.920;2.332;2023-03-01T02:00:09;4.50;46.55
68709;SHT30;55687;48.920;2.332;2023-03-01T02:02:34;4.52;46.56
68709;SHT30;55687;48.920;2.332;2023-03-01T02:05:08;4.49;46.69
68709;SHT30;55687;48.920;2.332;2023-03-01T02:07:38;4.48;46.81
68709;SHT30;55687;48.920;2.332;2023-03-01T02:10:04;4.49;46.83
68709;SHT30;55687;48.920;2.332;2023-03-01T02:12:30;4.48;46.83
68709;SHT30;55687;48.920;2.332;2023-03-01T02:14:56;4.43;46.92
68709;SHT30;55687;48.920;2.332;2023-03-01T02:17:21;4.43;47.06
68709;SHT30;55687;48.920;2.332;2023-03-01T02:20:37;4.42;47.20
68709;SHT30;55687;48.920;2.332;2023-03-01T02:23:05;4.41;47.31
68709;SHT30;55687;48.920;2.332;2023-03-01T02:30:51;4.31;47.51
68709;SHT30;55687;48.920;2.332;2023-03-01T02:33:37;4.29;47.47
68709;SHT30;55687;48.920;2.332;2023-03-01T02:36:12;4.25;47.59
68709;SHT30;55687;48.920;2.332;2023-03-01T02:38:43;4.24;47.55
68709;SHT30;55687;48.920;2.332;2023-03-01T02:41:12;4.22;47.58
68709;SHT30;55687;48.920;2.332;2023-03-01T02:43:38;4.22;47.68
68709;SHT30;55687;48.920;2.332;2023-03-01T02:46:07;4.25;47.67
68709;SHT30;55687;48.920;2.332;2023-03-01T02:48:45;4.22;47.83
68709;SHT30;55687;48.920;2.332;2023-03-01T02:51:23;4.18;47.91
68709;SHT30;55687;48.920;2.332;2023-03-01T02:56:23;4.14;48.15
68709;SHT30;55687;48.920;2.332;2023-03-01T02:58:48;4.14;48.04
68709;SHT30;55687;48.920;2.332;2023-03-01T03:01:17;4.12;47.93
68709;SHT30;55687;48.920;2.332;2023-03-01T03:03:43;4.09;48.10
68709;SHT30;55687;48.920;2.332;2023-03-01T03:06:08;4.09;48.10
68709;SHT30;55687;48.920;2.332;2023-03-01T03:08:34;4.09;48.15
68709;SHT30;55687;48.920;2.332;2023-03-01T03:10:59;4.05;48.36
68709;SHT30;55687;48.920;2.332;2023-03-01T03:13:25;4.02;48.29
68709;SHT30;55687;48.920;2.332;2023-03-01T03:15:54;4.01;48.25
68709;SHT30;55687;48.920;2.332;2023-03-01T03:18:20;3.98;48.26
68709;SHT30;55687;48.920;2.332;2023-03-01T03:20:46;3.98;48.35
68709;SHT30;55687;48.920;2.332;2023-03-01T03:23:12;3.94;48.44
68709;SHT30;55687;48.920;2.332;2023-03-01T03:25:38;3.93;48.70
68709;SHT30;55687;48.920;2.332;2023-03-01T03:28:04;3.90;48.64
68709;SHT30;55687;48.920;2.332;2023-03-01T03:30:36;3.87;48.57
68709;SHT30;55687;48.920;2.332;2023-03-01T03:33:04;3.89;48.66
68709;SHT30;55687;48.920;2.332;2023-03-01T03:35:33;3.90;48.89
68709;SHT30;55687;48.920;2.332;2023-03-01T03:38:06;3.87;48.74
68709;SHT30;55687;48.920;2.332;2023-03-01T03:40:41;3.84;48.70
68709;SHT30;55687;48.920;2.332;2023-03-01T03:43:09;3.83;48.69
68709;SHT30;55687;48.920;2.332;2023-03-01T03:45:36;3.80;48.74
68709;SHT30;55687;48.920;2.332;2023-03-01T03:48:02;3.79;49.06
68709;SHT30;55687;48.920;2.332;2023-03-01T03:50:28;3.77;49.23
68709;SHT30;55687;48.920;2.332;2023-03-01T03:52:54;3.77;49.13
68709;SHT30;55687;48.920;2.332;2023-03-01T03:55:19;3.77;49.05
68709;SHT30;55687;48.920;2.332;2023-03-01T03:57:47;3.74;49.14
68709;SHT30;55687;48.920;2.332;2023-03-01T04:00:18;3.74;49.34
68709;SHT30;55687;48.920;2.332;2023-03-01T04:02:45;3.74;49.26
68709;SHT30;55687;48.920;2.332;2023-03-01T04:05:13;3.74;49.31
68709;SHT30;55687;48.920;2.332;2023-03-01T04:07:42;3.72;49.34
68709;SHT30;55687;48.920;2.332;2023-03-01T04:10:11;3.70;49.27
68709;SHT30;55687;48.920;2.332;2023-03-01T04:12:36;3.70;49.37
68709;SHT30;55687;48.920;2.332;2023-03-01T04:15:03;3.67;49.39
68709;SHT30;55687;48.920;2.332;2023-03-01T04:17:42;3.69;49.52
68709;SHT30;55687;48.920;2.332;2023-03-01T04:20:15;3.69;49.68
68709;SHT30;55687;48.920;2.332;2023-03-01T04:22:49;3.67;49.78
68709;SHT30;55687;48.920;2.332;2023-03-01T04:25:15;3.67;49.83
68709;SHT30;55687;48.920;2.332;2023-03-01T04:27:40;3.70;49.75
68709;SHT30;55687;48.920;2.332;2023-03-01T04:30:08;3.66;49.77
68709;SHT30;55687;48.920;2.332;2023-03-01T04:32:33;3.66;49.74
68709;SHT30;55687;48.920;2.332;2023-03-01T04:34:59;3.66;49.73
68709;SHT30;55687;48.920;2.332;2023-03-01T04:37:25;3.69;49.89
68709;SHT30;55687;48.920;2.332;2023-03-01T04:39:50;3.67;49.93
68709;SHT30;55687;48.920;2.332;2023-03-01T04:42:15;3.67;50.06
68709;SHT30;55687;48.920;2.332;2023-03-01T04:44:42;3.65;50.36
68709;SHT30;55687;48.920;2.332;2023-03-01T04:47:07;3.65;50.26
68709;SHT30;55687;48.920;2.332;2023-03-01T04:49:33;3.63;50.51
68709;SHT30;55687;48.920;2.332;2023-03-01T04:51:58;3.63;50.60
68709;SHT30;55687;48.920;2.332;2023-03-01T04:54:30;3.63;50.73
68709;SHT30;55687;48.920;2.332;2023-03-01T04:56:55;3.60;50.62
68709;SHT30;55687;48.920;2.332;2023-03-01T04:59:21;3.60;50.46
68709;SHT30;55687;48.920;2.332;2023-03-01T05:01:52;3.63;50.53
68709;SHT30;55687;48.920;2.332;2023-03-01T05:04:21;3.63;50.58
68709;SHT30;55687;48.920;2.332;2023-03-01T05:06:46;3.63;50.57
68709;SHT30;55687;48.920;2.332;2023-03-01T05:09:12;3.60;50.65
68709;SHT30;55687;48.920;2.332;2023-03-01T05:11:37;3.59;50.75
68709;SHT30;55687;48.920;2.332;2023-03-01T05:14:04;3.60;50.84
68709;SHT30;55687;48.920;2.332;2023-03-01T05:16:30;3.58;50.78
68709;SHT30;55687;48.920;2.332;2023-03-01T05:18:56;3.58;50.82
68709;SHT30;55687;48.920;2.332;2023-03-01T05:21:22;3.55;50.89
68709;SHT30;55687;48.920;2.332;2023-03-01T05:23:47;3.54;51.00
68709;SHT30;55687;48.920;2.332;2023-03-01T05:26:14;3.54;51.06
68709;SHT30;55687;48.920;2.332;2023-03-01T05:28:39;3.55;50.97
68709;SHT30;55687;48.920;2.332;2023-03-01T05:31:05;3.58;51.06
68709;SHT30;55687;48.920;2.332;2023-03-01T05:33:41;3.55;50.98
68709;SHT30;55687;48.920;2.332;2023-03-01T05:36:07;3.55;50.89
68709;SHT30;55687;48.920;2.332;2023-03-01T05:38:33;3.54;51.06
68709;SHT30;55687;48.920;2.332;2023-03-01T05:40:59;3.55;51.13
68709;SHT30;55687;48.920;2.332;2023-03-01T05:43:24;3.54;51.37
68709;SHT30;55687;48.920;2.332;2023-03-01T05:45:50;3.51;51.20
68709;SHT30;55687;48.920;2.332;2023-03-01T05:48:15;3.54;51.26
68709;SHT30;55687;48.920;2.332;2023-03-01T05:50:44;3.49;51.28
68709;SHT30;55687;48.920;2.332;2023-03-01T05:53:12;3.49;51.33
68709;SHT30;55687;48.920;2.332;2023-03-01T05:55:38;3.48;51.77
68709;SHT30;55687;48.920;2.332;2023-03-01T05:58:06;3.48;51.77
68709;SHT30;55687;48.920;2.332;2023-03-01T06:00:32;3.46;51.90
68709;SHT30;55687;48.920;2.332;2023-03-01T06:02:59;3.46;51.86
68709;SHT30;55687;48.920;2.332;2023-03-01T06:05:25;3.43;51.61
68709;SHT30;55687;48.920;2.332;2023-03-01T06:07:51;3.45;51.47
68709;SHT30;55687;48.920;2.332;2023-03-01T06:10:19;3.43;51.57
68709;SHT30;55687;48.920;2.332;2023-03-01T06:12:46;3.38;51.61
68709;SHT30;55687;48.920;2.332;2023-03-01T06:15:14;3.39;51.86
68709;SHT30;55687;48.920;2.332;2023-03-01T06:17:41;3.36;52.10
68709;SHT30;55687;48.920;2.332;2023-03-01T06:20:12;3.35;51.82
68709;SHT30;55687;48.920;2.332;2023-03-01T06:22:38;3.38;51.77
68709;SHT30;55687;48.920;2.332;2023-03-01T06:25:05;3.38;51.87
68709;SHT30;55687;48.920;2.332;2023-03-01T06:27:30;3.32;52.32
68709;SHT30;55687;48.920;2.332;2023-03-01T06:29:56;3.36;52.06
68709;SHT30;55687;48.920;2.332;2023-03-01T06:32:21;3.32;52.00
68709;SHT30;55687;48.920;2.332;2023-03-01T06:34:46;3.31;52.20
68709;SHT30;55687;48.920;2.332;2023-03-01T06:37:12;3.30;52.25
68709;SHT30;55687;48.920;2.332;2023-03-01T06:39:37;3.28;52.17
68709;SHT30;55687;48.920;2.332;2023-03-01T06:42:03;3.25;52.38
68709;SHT30;55687;48.920;2.332;2023-03-01T06:44:28;3.24;52.45
68709;SHT30;55687;48.920;2.332;2023-03-01T06:46:54;3.24;52.49
68709;SHT30;55687;48.920;2.332;2023-03-01T06:49:19;3.27;52.30
68709;SHT30;55687;48.920;2.332;2023-03-01T06:51:45;3.24;52.37
68709;SHT30;55687;48.920;2.332;2023-03-01T06:54:11;3.21;52.43
68709;SHT30;55687;48.920;2.332;2023-03-01T06:56:36;3.18;52.58
68709;SHT30;55687;48.920;2.332;2023-03-01T06:59:02;3.14;52.64
68709;SHT30;55687;48.920;2.332;2023-03-01T07:01:29;3.13;52.78
68709;SHT30;55687;48.920;2.332;2023-03-01T07:03:54;3.11;52.81
68709;SHT30;55687;48.920;2.332;2023-03-01T07:06:20;3.10;52.88
68709;SHT30;55687;48.920;2.332;2023-03-01T07:08:46;3.08;53.03
68709;SHT30;55687;48.920;2.332;2023-03-01T07:11:12;3.07;53.06
68709;SHT30;55687;48.920;2.332;2023-03-01T07:13:37;3.05;53.26
68709;SHT30;55687;48.920;2.332;2023-03-01T07:16:03;3.10;53.30
68709;SHT30;55687;48.920;2.332;2023-03-01T07:18:28;3.11;53.24
68709;SHT30;55687;48.920;2.332;2023-03-01T07:20:53;3.14;53.19
68709;SHT30;55687;48.920;2.332;2023-03-01T07:23:19;3.20;53.25
68709;SHT30;55687;48.920;2.332;2023-03-01T07:25:44;3.22;53.34
68709;SHT30;55687;48.920;2.332;2023-03-01T07:28:15;3.27;53.35
68709;SHT30;55687;48.920;2.332;2023-03-01T07:30:41;3.27;53.35
68709;SHT30;55687;48.920;2.332;2023-03-01T07:33:06;3.30;53.32
68709;SHT30;55687;48.920;2.332;2023-03-01T07:35:32;3.35;52.90
68709;SHT30;55687;48.920;2.332;2023-03-01T07:37:58;3.32;52.96
68709;SHT30;55687;48.920;2.332;2023-03-01T07:40:23;3.30;52.99
68709;SHT30;55687;48.920;2.332;2023-03-01T07:42:49;3.30;53.12
68709;SHT30;55687;48.920;2.332;2023-03-01T07:45:14;3.30;53.06
68709;SHT30;55687;48.920;2.332;2023-03-01T07:47:40;3.30;53.21
68709;SHT30;55687;48.920;2.332;2023-03-01T07:50:05;3.32;53.21
68709;SHT30;55687;48.920;2.332;2023-03-01T07:52:31;3.34;53.24
68709;SHT30;55687;48.920;2.332;2023-03-01T07:54:57;3.38;53.20
68709;SHT30;55687;48.920;2.332;2023-03-01T07:57:23;3.35;53.18
68709;SHT30;55687;48.920;2.332;2023-03-01T07:59:48;3.40;53.28
68709;SHT30;55687;48.920;2.332;2023-03-01T08:02:13;3.42;53.24
68709;SHT30;55687;48.920;2.332;2023-03-01T08:04:40;3.43;53.10
68709;SHT30;55687;48.920;2.332;2023-03-01T08:07:06;3.45;53.08
68709;SHT30;55687;48.920;2.332;2023-03-01T08:09:31;3.45;53.12
68709;SHT30;55687;48.920;2.332;2023-03-01T08:11:57;3.46;53.12
68709;SHT30;55687;48.920;2.332;2023-03-01T08:14:25;3.49;52.76
68709;SHT30;55687;48.920;2.332;2023-03-01T08:16:51;3.48;52.96
68709;SHT30;55687;48.920;2.332;2023-03-01T08:19:17;3.49;52.74
68709;SHT30;55687;48.920;2.332;2023-03-01T08:21:42;3.52;53.13
68709;SHT30;55687;48.920;2.332;2023-03-01T08:24:08;3.56;53.07
68709;SHT30;55687;48.920;2.332;2023-03-01T08:26:35;3.60;53.22
68709;SHT30;55687;48.920;2.332;2023-03-01T08:29:02;3.66;53.14
68709;SHT30;55687;48.920;2.332;2023-03-01T08:31:37;3.74;53.01
68709;SHT30;55687;48.920;2.332;2023-03-01T08:34:06;3.72;52.84
68709;SHT30;55687;48.920;2.332;2023-03-01T08:36:35;3.79;52.82
68709;SHT30;55687;48.920;2.332;2023-03-01T08:39:02;3.84;52.78
68709;SHT30;55687;48.920;2.332;2023-03-01T08:41:27;3.86;52.76
68709;SHT30;55687;48.920;2.332;2023-03-01T08:43:53;3.94;52.79
68709;SHT30;55687;48.920;2.332;2023-03-01T08:46:24;3.98;52.81
68709;SHT30;55687;48.920;2.332;2023-03-01T08:48:49;4.01;52.56
68709;SHT30;55687;48.920;2.332;2023-03-01T08:51:17;4.07;52.44
68709;SHT30;55687;48.920;2.332;2023-03-01T08:53:43;4.05;52.51
68709;SHT30;55687;48.920;2.332;2023-03-01T08:56:09;4.12;52.39
68709;SHT30;55687;48.920;2.332;2023-03-01T08:58:35;4.16;52.33
68709;SHT30;55687;48.920;2.332;2023-03-01T09:01:06;4.22;52.30
68709;SHT30;55687;48.920;2.332;2023-03-01T09:03:32;4.21;52.13
68709;SHT30;55687;48.920;2.332;2023-03-01T09:06:00;4.28;52.05
68709;SHT30;55687;48.920;2.332;2023-03-01T09:08:26;4.31;52.04
68709;SHT30;55687;48.920;2.332;2023-03-01T09:10:51;4.32;52.09
68709;SHT30;55687;48.920;2.332;2023-03-01T09:13:17;4.35;52.05
68709;SHT30;55687;48.920;2.332;2023-03-01T09:15:42;4.36;51.91
68709;SHT30;55687;48.920;2.332;2023-03-01T09:18:07;4.41;51.74
68709;SHT30;55687;48.920;2.332;2023-03-01T09:20:33;4.41;51.76
68709;SHT30;55687;48.920;2.332;2023-03-01T09:22:58;4.42;51.78
68709;SHT30;55687;48.920;2.332;2023-03-01T09:25:24;4.49;51.75
68709;SHT30;55687;48.920;2.332;2023-03-01T09:27:53;4.52;51.56
68709;SHT30;55687;48.920;2.332;2023-03-01T09:30:18;4.56;51.69
68709;SHT30;55687;48.920;2.332;2023-03-01T09:32:44;4.59;51.68
68709;SHT30;55687;48.920;2.332;2023-03-01T09:35:10;4.64;51.57
68709;SHT30;55687;48.920;2.332;2023-03-01T09:37:36;4.68;51.74
68709;SHT30;55687;48.920;2.332;2023-03-01T09:40:04;4.71;51.58
68709;SHT30;55687;48.920;2.332;2023-03-01T09:42:32;4.80;51.11
68709;SHT30;55687;48.920;2.332;2023-03-01T09:45:03;4.80;51.07
68709;SHT30;55687;48.920;2.332;2023-03-01T09:47:30;4.81;51.11
68709;SHT30;55687;48.920;2.332;2023-03-01T09:50:12;4.85;50.95
68709;SHT30;55687;48.920;2.332;2023-03-01T09:52:44;4.87;50.84
68709;SHT30;55687;48.920;2.332;2023-03-01T09:55:14;4.91;50.68
68709;SHT30;55687;48.920;2.332;2023-03-01T09:57:50;4.95;50.76
68709;SHT30;55687;48.920;2.332;2023-03-01T10:00:26;4.99;50.67
68709;SHT30;55687;48.920;2.332;2023-03-01T10:03:19;5.02;50.56
68709;SHT30;55687;48.920;2.332;2023-03-01T10:08:54;5.12;50.68
68709;SHT30;55687;48.920;2.332;2023-03-01T10:11:22;5.20;50.66
68709;SHT30;55687;48.920;2.332;2023-03-01T10:13:57;5.27;50.48
68709;SHT30;55687;48.920;2.332;2023-03-01T10:19:12;5.39;49.91
68709;SHT30;55687;48.920;2.332;2023-03-01T10:21:44;5.43;49.92
68709;SHT30;55687;48.920;2.332;2023-03-01T10:24:14;5.50;49.42
68709;SHT30;55687;48.920;2.332;2023-03-01T10:26:44;5.55;49.57
68709;SHT30;55687;48.920;2.332;2023-03-01T10:29:12;5.58;49.64
68709;SHT30;55687;48.920;2.332;2023-03-01T10:36:40;5.72;48.71
68709;SHT30;55687;48.920;2.332;2023-03-01T10:39:16;5.77;48.41
68709;SHT30;55687;48.920;2.332;2023-03-01T10:42:04;5.79;48.34
68709;SHT30;55687;48.920;2.332;2023-03-01T10:44:49;5.87;48.32
68709;SHT30;55687;48.920;2.332;2023-03-01T10:47:22;5.91;48.49
68709;SHT30;55687;48.920;2.332;2023-03-01T10:52:20;6.05;48.00
68709;SHT30;55687;48.920;2.332;2023-03-01T10:54:58;6.12;47.83
68709;SHT30;55687;48.920;2.332;2023-03-01T10:57:37;6.12;47.85
68709;SHT30;55687;48.920;2.332;2023-03-01T11:03:30;6.24;47.79
68709;SHT30;55687;48.920;2.332;2023-03-01T11:05:36;6.30;47.46
68709;SHT30;55687;48.920;2.332;2023-03-01T11:08:02;6.33;47.38
68709;SHT30;55687;48.920;2.332;2023-03-01T11:13:06;6.40;47.39
68709;SHT30;55687;48.920;2.332;2023-03-01T11:15:32;6.40;46.91
68709;SHT30;55687;48.920;2.332;2023-03-01T11:17:57;6.44;47.22
68709;SHT30;55687;48.920;2.332;2023-03-01T11:20:34;6.48;47.16
68709;SHT30;55687;48.920;2.332;2023-03-01T11:23:13;6.54;47.34
68709;SHT30;55687;48.920;2.332;2023-03-01T11:25:43;6.63;47.02
68709;SHT30;55687;48.920;2.332;2023-03-01T11:28:19;6.69;46.83
68709;SHT30;55687;48.920;2.332;2023-03-01T11:31:03;6.69;46.64
68709;SHT30;55687;48.920;2.332;2023-03-01T11:33:41;6.72;46.74
68709;SHT30;55687;48.920;2.332;2023-03-01T11:38:41;6.82;46.47
68709;SHT30;55687;48.920;2.332;2023-03-01T11:41:17;6.83;46.43
68709;SHT30;55687;48.920;2.332;2023-03-01T11:44:10;6.90;46.35
68709;SHT30;55687;48.920;2.332;2023-03-01T11:52:44;7.00;46.20
68709;SHT30;55687;48.920;2.332;2023-03-01T12:06:27;7.25;46.12
68709;SHT30;55687;48.920;2.332;2023-03-01T12:08:58;7.32;46.28
68709;SHT30;55687;48.920;2.332;2023-03-01T12:11:47;7.42;46.23
68709;SHT30;55687;48.920;2.332;2023-03-01T12:20:14;7.47;45.59
68709;SHT30;55687;48.920;2.332;2023-03-01T12:23:16;7.45;45.35
68709;SHT30;55687;48.920;2.332;2023-03-01T12:26:10;7.47;45.61
68709;SHT30;55687;48.920;2.332;2023-03-01T12:51:26;7.94;44.64
68709;SHT30;55687;48.920;2.332;2023-03-01T12:53:55;7.95;45.18
68709;SHT30;55687;48.920;2.332;2023-03-01T12:56:28;8.07;44.88
68709;SHT30;55687;48.920;2.332;2023-03-01T12:58:59;8.10;44.88
68709;SHT30;55687;48.920;2.332;2023-03-01T13:04:35;8.27;44.37
68709;SHT30;55687;48.920;2.332;2023-03-01T13:18:24;8.76;43.71
68709;SHT30;55687;48.920;2.332;2023-03-01T13:20:52;8.85;43.97
68709;SHT30;55687;48.920;2.332;2023-03-01T13:26:03;9.04;43.42
68709;SHT30;55687;48.920;2.332;2023-03-01T13:28:39;9.14;43.40
68709;SHT30;55687;48.920;2.332;2023-03-01T13:31:55;9.25;43.49
68709;SHT30;55687;48.920;2.332;2023-03-01T13:34:01;9.40;43.17
68709;SHT30;55687;48.920;2.332;2023-03-01T13:39:18;9.56;43.09
68709;SHT30;55687;48.920;2.332;2023-03-01T13:41:53;9.63;42.84
68709;SHT30;55687;48.920;2.332;2023-03-01T13:44:37;9.73;42.78
68709;SHT30;55687;48.920;2.332;2023-03-01T13:49:59;9.85;42.70
68709;SHT30;55687;48.920;2.332;2023-03-01T13:52:48;9.92;42.67
68709;SHT30;55687;48.920;2.332;2023-03-01T13:57:54;10.03;42.43
68709;SHT30;55687;48.920;2.332;2023-03-01T14:00:36;10.03;42.57
68709;SHT30;55687;48.920;2.332;2023-03-01T14:05:39;10.15;42.30
68709;SHT30;55687;48.920;2.332;2023-03-01T14:08:17;10.22;42.23
68709;SHT30;55687;48.920;2.332;2023-03-01T14:19:21;10.60;41.96
68709;SHT30;55687;48.920;2.332;2023-03-01T14:24:57;10.74;41.30
68709;SHT30;55687;48.920;2.332;2023-03-01T14:27:26;10.78;41.50
68709;SHT30;55687;48.920;2.332;2023-03-01T14:30:01;10.81;41.13
68709;SHT30;55687;48.920;2.332;2023-03-01T14:32:30;10.81;41.25
68709;SHT30;55687;48.920;2.332;2023-03-01T14:34:57;10.82;41.03
68709;SHT30;55687;48.920;2.332;2023-03-01T14:37:33;10.85;41.03
68709;SHT30;55687;48.920;2.332;2023-03-01T14:40:00;10.86;40.81
68709;SHT30;55687;48.920;2.332;2023-03-01T14:42:34;10.92;40.84
68709;SHT30;55687;48.920;2.332;2023-03-01T14:45:00;10.95;40.86
68709;SHT30;55687;48.920;2.332;2023-03-01T14:47:27;10.96;40.70
68709;SHT30;55687;48.920;2.332;2023-03-01T14:50:24;10.98;40.86
68709;SHT30;55687;48.920;2.332;2023-03-01T14:52:53;10.96;40.85
68709;SHT30;55687;48.920;2.332;2023-03-01T14:55:29;10.98;41.16
68709;SHT30;55687;48.920;2.332;2023-03-01T14:57:56;11.05;41.18
68709;SHT30;55687;48.920;2.332;2023-03-01T15:00:26;11.09;40.85
68709;SHT30;55687;48.920;2.332;2023-03-01T15:02:53;11.08;40.42
68709;SHT30;55687;48.920;2.332;2023-03-01T15:05:26;11.06;40.71
68709;SHT30;55687;48.920;2.332;2023-03-01T15:07:53;11.09;40.70
68709;SHT30;55687;48.920;2.332;2023-03-01T15:10:25;11.15;40.56
68709;SHT30;55687;48.920;2.332;2023-03-01T15:12:51;11.19;40.52
68709;SHT30;55687;48.920;2.332;2023-03-01T15:15:36;11.30;40.41
68709;SHT30;55687;48.920;2.332;2023-03-01T15:18:13;11.29;40.19
68709;SHT30;55687;48.920;2.332;2023-03-01T15:20:39;11.29;40.20
68709;SHT30;55687;48.920;2.332;2023-03-01T15:23:04;11.31;39.95
68709;SHT30;55687;48.920;2.332;2023-03-01T15:25:31;11.29;39.91
68709;SHT30;55687;48.920;2.332;2023-03-01T15:27:58;11.30;39.80
68709;SHT30;55687;48.920;2.332;2023-03-01T15:30:27;11.34;39.86
68709;SHT30;55687;48.920;2.332;2023-03-01T15:35:48;11.37;39.85
68709;SHT30;55687;48.920;2.332;2023-03-01T15:38:36;11.38;39.77
68709;SHT30;55687;48.920;2.332;2023-03-01T15:43:50;11.29;39.58
68709;SHT30;55687;48.920;2.332;2023-03-01T15:46:26;11.29;39.59
68709;SHT30;55687;48.920;2.332;2023-03-01T15:48:55;11.31;39.34
68709;SHT30;55687;48.920;2.332;2023-03-01T15:51:33;11.38;39.25
68709;SHT30;55687;48.920;2.332;2023-03-01T15:54:06;11.41;39.45
68709;SHT30;55687;48.920;2.332;2023-03-01T15:56:32;11.45;39.14
68709;SHT30;55687;48.920;2.332;2023-03-01T15:59:02;11.51;39.04
68709;SHT30;55687;48.920;2.332;2023-03-01T16:01:29;11.50;38.73
68709;SHT30;55687;48.920;2.332;2023-03-01T16:03:54;11.57;39.03
68709;SHT30;55687;48.920;2.332;2023-03-01T16:06:21;11.68;39.00
68709;SHT30;55687;48.920;2.332;2023-03-01T16:08:46;11.79;38.51
68709;SHT30;55687;48.920;2.332;2023-03-01T16:11:16;11.81;38.49
68709;SHT30;55687;48.920;2.332;2023-03-01T16:13:41;11.97;38.38
68709;SHT30;55687;48.920;2.332;2023-03-01T16:16:09;11.88;38.24
68709;SHT30;55687;48.920;2.332;2023-03-01T16:18:37;11.83;38.31
68709;SHT30;55687;48.920;2.332;2023-03-01T16:21:03;11.85;38.30
68709;SHT30;55687;48.920;2.332;2023-03-01T16:23:29;11.92;38.23
68709;SHT30;55687;48.920;2.332;2023-03-01T16:25:59;11.88;38.35
68709;SHT30;55687;48.920;2.332;2023-03-01T16:28:24;11.77;38.54
68709;SHT30;55687;48.920;2.332;2023-03-01T16:30:49;11.70;38.64
68709;SHT30;55687;48.920;2.332;2023-03-01T16:33:15;11.61;38.46
68709;SHT30;55687;48.920;2.332;2023-03-01T16:35:41;11.47;38.71
68709;SHT30;55687;48.920;2.332;2023-03-01T16:38:06;11.40;38.82
68709;SHT30;55687;48.920;2.332;2023-03-01T16:40:32;11.30;38.80
68709;SHT30;55687;48.920;2.332;2023-03-01T16:42:58;11.20;38.83
68709;SHT30;55687;48.920;2.332;2023-03-01T16:45:33;11.16;38.84
68709;SHT30;55687;48.920;2.332;2023-03-01T16:47:59;11.09;39.13
68709;SHT30;55687;48.920;2.332;2023-03-01T16:50:24;10.94;39.34
68709;SHT30;55687;48.920;2.332;2023-03-01T16:52:50;10.86;39.59
68709;SHT30;55687;48.920;2.332;2023-03-01T16:55:15;10.79;39.80
68709;SHT30;55687;48.920;2.332;2023-03-01T16:57:41;10.72;39.91
68709;SHT30;55687;48.920;2.332;2023-03-01T17:00:07;10.64;39.98
68709;SHT30;55687;48.920;2.332;2023-03-01T17:02:36;10.54;40.00
68709;SHT30;55687;48.920;2.332;2023-03-01T17:05:02;10.46;40.14
68709;SHT30;55687;48.920;2.332;2023-03-01T17:07:29;10.29;40.29
68709;SHT30;55687;48.920;2.332;2023-03-01T17:09:59;10.12;40.75
68709;SHT30;55687;48.920;2.332;2023-03-01T17:12:24;9.99;40.71
68709;SHT30;55687;48.920;2.332;2023-03-01T17:14:50;9.87;41.04
68709;SHT30;55687;48.920;2.332;2023-03-01T17:17:15;9.75;41.25
68709;SHT30;55687;48.920;2.332;2023-03-01T17:19:42;9.60;41.16
68709;SHT30;55687;48.920;2.332;2023-03-01T17:22:09;9.51;41.33
68709;SHT30;55687;48.920;2.332;2023-03-01T17:24:37;9.40;41.54
68709;SHT30;55687;48.920;2.332;2023-03-01T17:27:03;9.29;41.65
68709;SHT30;55687;48.920;2.332;2023-03-01T17:29:29;9.21;41.71
68709;SHT30;55687;48.920;2.332;2023-03-01T17:31:54;9.12;41.95
68709;SHT30;55687;48.920;2.332;2023-03-01T17:34:21;9.07;42.16
68709;SHT30;55687;48.920;2.332;2023-03-01T17:36:46;9.04;42.23
68709;SHT30;55687;48.920;2.332;2023-03-01T17:39:15;8.98;42.33
68709;SHT30;55687;48.920;2.332;2023-03-01T17:41:41;8.94;42.30
68709;SHT30;55687;48.920;2.332;2023-03-01T17:44:06;8.91;42.40
68709;SHT30;55687;48.920;2.332;2023-03-01T17:46:32;8.91;42.60
68709;SHT30;55687;48.920;2.332;2023-03-01T17:48:57;8.84;42.67
68709;SHT30;55687;48.920;2.332;2023-03-01T17:51:23;8.79;42.61
68709;SHT30;55687;48.920;2.332;2023-03-01T17:53:48;8.76;42.61
68709;SHT30;55687;48.920;2.332;2023-03-01T17:56:13;8.74;42.67